sensor_id;sensor_type;location;lat;lon;timestamp;P1;durP1;ratioP1;P2;durP2;ratioP2
20840;SDS011;10581;48.524;9.040;2022-08-19T00:01:39;12.63;;;8.73;;
20840;SDS011;10581;48.524;9.040;2022-08-19T00:04:07;12.15;;;8.85;;
20840;SDS011;10581;48.524;9.040;2022-08-19T00:06:35;10.88;;;7.70;;
20840;SDS011;10581;48.524;9.040;2022-08-19T00:09:02;11.23;;;7.70;;
20840;SDS011;10581;48.524;9.040;2022-08-19T00:11:29;9.70;;;7.18;;
20840;SDS011;10581;48.524;9.040;2022-08-19T00:13:55;11.43;;;8.07;;
20840;SDS011;10581;48.524;9.040;2022-08-19T00:16:21;8.85;;;6.93;;
20840;SDS011;10581;48.524;9.040;2022-08-19T00:18:48;9.60;;;7.68;;
20840;SDS011;10581;48.524;9.040;2022-08-19T00:21:14;10.40;;;6.95;;
20840;SDS011;10581;48.524;9.040;2022-08-19T00:23:40;11.40;;;8.03;;
20840;SDS011;10581;48.524;9.040;2022-08-19T00:26:08;8.52;;;7.03;;
20840;SDS011;10581;48.524;9.040;2022-08-19T00:28:35;11.82;;;8.07;;
20840;SDS011;10581;48.524;9.040;2022-08-19T00:31:01;11.00;;;8.27;;
20840;SDS011;10581;48.524;9.040;2022-08-19T00:33:31;11.07;;;8.43;;
20840;SDS011;10581;48.524;9.040;2022-08-19T00:36:02;10.50;;;7.43;;
20840;SDS011;10581;48.524;9.040;2022-08-19T00:38:31;11.25;;;8.18;;
20840;SDS011;10581;48.524;9.040;2022-08-19T00:40:57;9.82;;;7.78;;
20840;SDS011;10581;48.524;9.040;2022-08-19T00:43:24;14.52;;;8.45;;
20840;SDS011;10581;48.524;9.040;2022-08-19T00:45:51;8.52;;;6.53;;
20840;SDS011;10581;48.524;9.040;2022-08-19T00:48:17;13.75;;;9.25;;
20840;SDS011;10581;48.524;9.040;2022-08-19T00:50:44;12.13;;;7.72;;
20840;SDS011;10581;48.524;9.040;2022-08-19T00:53:12;9.43;;;7.68;;
20840;SDS011;10581;48.524;9.040;2022-08-19T00:55:40;9.95;;;7.68;;
20840;SDS011;10581;48.524;9.040;2022-08-19T00:58:10;12.10;;;7.60;;
20840;SDS011;10581;48.524;9.040;2022-08-19T01:00:38;10.85;;;7.68;;
20840;SDS011;10581;48.524;9.040;2022-08-19T01:03:05;10.43;;;6.60;;
20840;SDS011;10581;48.524;9.040;2022-08-19T01:05:35;12.25;;;8.25;;
20840;SDS011;10581;48.524;9.040;2022-08-19T01:08:03;11.00;;;7.88;;
20840;SDS011;10581;48.524;9.040;2022-08-19T01:10:31;9.45;;;7.15;;
20840;SDS011;10581;48.524;9.040;2022-08-19T01:13:02;11.65;;;7.30;;
20840;SDS011;10581;48.524;9.040;2022-08-19T01:15:30;11.82;;;8.55;;
20840;SDS011;10581;48.524;9.040;2022-08-19T01:18:01;11.40;;;8.00;;
20840;SDS011;10581;48.524;9.040;2022-08-19T01:20:29;12.20;;;8.43;;
20840;SDS011;10581;48.524;9.040;2022-08-19T01:22:56;10.90;;;7.93;;
20840;SDS011;10581;48.524;9.040;2022-08-19T01:25:28;8.70;;;6.80;;
20840;SDS011;10581;48.524;9.040;2022-08-19T01:27:57;12.20;;;8.43;;
20840;SDS011;10581;48.524;9.040;2022-08-19T01:30:28;14.18;;;8.07;;
20840;SDS011;10581;48.524;9.040;2022-08-19T01:32:56;10.68;;;8.40;;
20840;SDS011;10581;48.524;9.040;2022-08-19T01:35:25;12.80;;;8.05;;
20840;SDS011;10581;48.524;9.040;2022-08-19T01:37:57;12.60;;;8.57;;
20840;SDS011;10581;48.524;9.040;2022-08-19T01:40:27;11.65;;;8.75;;
20840;SDS011;10581;48.524;9.040;2022-08-19T01:42:55;10.63;;;7.70;;
20840;SDS011;10581;48.524;9.040;2022-08-19T01:45:22;11.37;;;7.93;;
20840;SDS011;10581;48.524;9.040;2022-08-19T01:47:49;11.77;;;7.85;;
20840;SDS011;10581;48.524;9.040;2022-08-19T01:50:14;11.60;;;8.50;;
20840;SDS011;10581;48.524;9.040;2022-08-19T01:52:41;15.53;;;9.47;;
20840;SDS011;10581;48.524;9.040;2022-08-19T01:55:10;10.60;;;8.10;;
20840;SDS011;10581;48.524;9.040;2022-08-19T01:57:39;13.15;;;9.30;;
20840;SDS011;10581;48.524;9.040;2022-08-19T02:00:09;11.65;;;7.75;;
20840;SDS011;10581;48.524;9.040;2022-08-19T02:02:37;10.65;;;8.00;;
20840;SDS011;10581;48.524;9.040;2022-08-19T02:05:03;11.53;;;8.37;;
20840;SDS011;10581;48.524;9.040;2022-08-19T02:07:29;13.10;;;8.60;;
20840;SDS011;10581;48.524;9.040;2022-08-19T02:09:55;12.07;;;8.43;;
20840;SDS011;10581;48.524;9.040;2022-08-19T02:12:21;14.80;;;9.50;;
20840;SDS011;10581;48.524;9.040;2022-08-19T02:14:46;11.47;;;7.90;;
20840;SDS011;10581;48.524;9.040;2022-08-19T02:17:12;14.70;;;8.80;;
20840;SDS011;10581;48.524;9.040;2022-08-19T02:19:38;11.03;;;8.50;;
20840;SDS011;10581;48.524;9.040;2022-08-19T02:22:04;13.67;;;8.57;;
20840;SDS011;10581;48.524;9.040;2022-08-19T02:24:30;13.23;;;8.35;;
20840;SDS011;10581;48.524;9.040;2022-08-19T02:26:56;14.83;;;9.67;;
20840;SDS011;10581;48.524;9.040;2022-08-19T02:29:23;14.35;;;9.75;;
20840;SDS011;10581;48.524;9.040;2022-08-19T02:31:49;13.88;;;9.07;;
20840;SDS011;10581;48.524;9.040;2022-08-19T02:34:16;14.52;;;9.57;;
20840;SDS011;10581;48.524;9.040;2022-08-19T02:36:42;12.85;;;8.13;;
20840;SDS011;10581;48.524;9.040;2022-08-19T02:39:07;16.20;;;10.20;;
20840;SDS011;10581;48.524;9.040;2022-08-19T02:41:34;13.23;;;8.70;;
20840;SDS011;10581;48.524;9.040;2022-08-19T02:44:00;12.43;;;7.73;;
20840;SDS011;10581;48.524;9.040;2022-08-19T02:46:29;12.73;;;8.45;;
20840;SDS011;10581;48.524;9.040;2022-08-19T02:48:59;15.65;;;10.25;;
20840;SDS011;10581;48.524;9.040;2022-08-19T02:51:29;14.77;;;9.35;;
20840;SDS011;10581;48.524;9.040;2022-08-19T02:53:57;16.27;;;9.50;;
20840;SDS011;10581;48.524;9.040;2022-08-19T02:56:25;13.43;;;9.05;;
20840;SDS011;10581;48.524;9.040;2022-08-19T02:58:52;14.40;;;9.77;;
20840;SDS011;10581;48.524;9.040;2022-08-19T03:03:51;16.27;;;10.63;;
20840;SDS011;10581;48.524;9.040;2022-08-19T03:06:18;14.60;;;9.30;;
20840;SDS011;10581;48.524;9.040;2022-08-19T03:08:45;15.95;;;9.93;;
20840;SDS011;10581;48.524;9.040;2022-08-19T03:11:15;12.38;;;8.15;;
20840;SDS011;10581;48.524;9.040;2022-08-19T03:13:42;12.35;;;8.57;;
20840;SDS011;10581;48.524;9.040;2022-08-19T03:16:09;14.55;;;9.63;;
20840;SDS011;10581;48.524;9.040;2022-08-19T03:18:36;11.80;;;9.50;;
20840;SDS011;10581;48.524;9.040;2022-08-19T03:21:02;14.60;;;9.20;;
20840;SDS011;10581;48.524;9.040;2022-08-19T03:23:29;11.27;;;7.97;;
20840;SDS011;10581;48.524;9.040;2022-08-19T03:25:54;14.43;;;10.10;;
20840;SDS011;10581;48.524;9.040;2022-08-19T03:28:20;13.70;;;8.70;;
20840;SDS011;10581;48.524;9.040;2022-08-19T03:30:56;14.98;;;9.50;;
20840;SDS011;10581;48.524;9.040;2022-08-19T03:33:24;12.35;;;8.98;;
20840;SDS011;10581;48.524;9.040;2022-08-19T03:38:48;19.17;;;10.88;;
20840;SDS011;10581;48.524;9.040;2022-08-19T03:41:17;15.10;;;9.75;;
20840;SDS011;10581;48.524;9.040;2022-08-19T03:43:44;15.10;;;8.98;;
20840;SDS011;10581;48.524;9.040;2022-08-19T03:46:18;15.80;;;9.68;;
20840;SDS011;10581;48.524;9.040;2022-08-19T03:48:47;14.45;;;9.38;;
20840;SDS011;10581;48.524;9.040;2022-08-19T03:51:22;15.57;;;10.30;;
20840;SDS011;10581;48.524;9.040;2022-08-19T03:53:51;12.63;;;9.25;;
20840;SDS011;10581;48.524;9.040;2022-08-19T03:56:17;13.77;;;8.77;;
20840;SDS011;10581;48.524;9.040;2022-08-19T03:58:44;13.55;;;9.02;;
20840;SDS011;10581;48.524;9.040;2022-08-19T04:01:11;14.80;;;9.30;;
20840;SDS011;10581;48.524;9.040;2022-08-19T04:03:39;14.43;;;9.30;;
20840;SDS011;10581;48.524;9.040;2022-08-19T04:06:11;15.98;;;9.80;;
20840;SDS011;10581;48.524;9.040;2022-08-19T04:08:39;12.52;;;8.90;;
20840;SDS011;10581;48.524;9.040;2022-08-19T04:11:06;14.00;;;9.20;;
20840;SDS011;10581;48.524;9.040;2022-08-19T04:13:34;11.40;;;8.18;;
20840;SDS011;10581;48.524;9.040;2022-08-19T04:16:00;16.70;;;11.13;;
20840;SDS011;10581;48.524;9.040;2022-08-19T04:18:25;16.00;;;9.40;;
20840;SDS011;10581;48.524;9.040;2022-08-19T04:20:51;14.40;;;10.30;;
20840;SDS011;10581;48.524;9.040;2022-08-19T04:23:17;13.43;;;9.40;;
20840;SDS011;10581;48.524;9.040;2022-08-19T04:25:43;16.75;;;9.40;;
20840;SDS011;10581;48.524;9.040;2022-08-19T04:28:10;16.60;;;9.80;;
20840;SDS011;10581;48.524;9.040;2022-08-19T04:30:50;15.80;;;9.73;;
20840;SDS011;10581;48.524;9.040;2022-08-19T04:33:20;13.32;;;8.77;;
20840;SDS011;10581;48.524;9.040;2022-08-19T04:35:48;15.93;;;10.23;;
20840;SDS011;10581;48.524;9.040;2022-08-19T04:38:15;15.73;;;9.10;;
20840;SDS011;10581;48.524;9.040;2022-08-19T04:40:44;14.40;;;9.82;;
20840;SDS011;10581;48.524;9.040;2022-08-19T04:43:30;14.52;;;10.18;;
20840;SDS011;10581;48.524;9.040;2022-08-19T04:45:56;22.23;;;11.27;;
20840;SDS011;10581;48.524;9.040;2022-08-19T04:48:22;15.07;;;9.63;;
20840;SDS011;10581;48.524;9.040;2022-08-19T04:50:55;19.13;;;10.13;;
20840;SDS011;10581;48.524;9.040;2022-08-19T04:55:56;17.80;;;11.30;;
20840;SDS011;10581;48.524;9.040;2022-08-19T04:58:23;15.38;;;10.48;;
20840;SDS011;10581;48.524;9.040;2022-08-19T05:00:50;15.02;;;10.68;;
20840;SDS011;10581;48.524;9.040;2022-08-19T05:03:16;15.73;;;10.00;;
20840;SDS011;10581;48.524;9.040;2022-08-19T05:05:43;18.23;;;11.68;;
20840;SDS011;10581;48.524;9.040;2022-08-19T05:08:11;17.20;;;10.82;;
20840;SDS011;10581;48.524;9.040;2022-08-19T05:10:38;17.13;;;10.07;;
20840;SDS011;10581;48.524;9.040;2022-08-19T05:13:04;17.05;;;9.80;;
20840;SDS011;10581;48.524;9.040;2022-08-19T05:15:30;16.40;;;10.20;;
20840;SDS011;10581;48.524;9.040;2022-08-19T05:17:56;19.20;;;10.77;;
20840;SDS011;10581;48.524;9.040;2022-08-19T05:20:41;17.05;;;11.10;;
20840;SDS011;10581;48.524;9.040;2022-08-19T05:23:25;14.57;;;10.73;;
20840;SDS011;10581;48.524;9.040;2022-08-19T05:25:50;16.80;;;11.27;;
20840;SDS011;10581;48.524;9.040;2022-08-19T05:28:17;15.63;;;10.20;;
20840;SDS011;10581;48.524;9.040;2022-08-19T05:30:44;18.30;;;11.13;;
20840;SDS011;10581;48.524;9.040;2022-08-19T05:33:10;18.60;;;12.27;;
20840;SDS011;10581;48.524;9.040;2022-08-19T05:35:37;17.50;;;10.77;;
20840;SDS011;10581;48.524;9.040;2022-08-19T05:38:04;17.73;;;12.15;;
20840;SDS011;10581;48.524;9.040;2022-08-19T05:40:33;15.30;;;9.95;;
20840;SDS011;10581;48.524;9.040;2022-08-19T05:43:01;20.48;;;13.95;;
20840;SDS011;10581;48.524;9.040;2022-08-19T05:45:29;17.42;;;11.65;;
20840;SDS011;10581;48.524;9.040;2022-08-19T05:47:54;16.87;;;10.90;;
20840;SDS011;10581;48.524;9.040;2022-08-19T05:50:20;17.27;;;10.80;;
20840;SDS011;10581;48.524;9.040;2022-08-19T05:52:46;16.23;;;10.25;;
20840;SDS011;10581;48.524;9.040;2022-08-19T05:55:11;17.40;;;10.80;;
20840;SDS011;10581;48.524;9.040;2022-08-19T05:57:37;15.40;;;10.63;;
20840;SDS011;10581;48.524;9.040;2022-08-19T06:00:04;15.95;;;10.73;;
20840;SDS011;10581;48.524;9.040;2022-08-19T06:02:35;13.13;;;9.25;;
20840;SDS011;10581;48.524;9.040;2022-08-19T06:05:01;15.83;;;9.60;;
20840;SDS011;10581;48.524;9.040;2022-08-19T06:07:28;16.60;;;11.00;;
20840;SDS011;10581;48.524;9.040;2022-08-19T06:09:54;16.00;;;10.30;;
20840;SDS011;10581;48.524;9.040;2022-08-19T06:12:20;15.02;;;10.10;;
20840;SDS011;10581;48.524;9.040;2022-08-19T06:14:51;16.35;;;10.23;;
20840;SDS011;10581;48.524;9.040;2022-08-19T06:17:17;12.98;;;10.07;;
20840;SDS011;10581;48.524;9.040;2022-08-19T06:19:43;17.40;;;11.10;;
20840;SDS011;10581;48.524;9.040;2022-08-19T06:22:08;20.10;;;12.60;;
20840;SDS011;10581;48.524;9.040;2022-08-19T06:24:36;18.52;;;10.65;;
20840;SDS011;10581;48.524;9.040;2022-08-19T06:27:02;19.33;;;12.67;;
20840;SDS011;10581;48.524;9.040;2022-08-19T06:29:30;18.77;;;11.57;;
20840;SDS011;10581;48.524;9.040;2022-08-19T06:31:57;16.02;;;10.52;;
20840;SDS011;10581;48.524;9.040;2022-08-19T06:34:25;20.70;;;11.95;;
20840;SDS011;10581;48.524;9.040;2022-08-19T06:36:53;16.85;;;11.10;;
20840;SDS011;10581;48.524;9.040;2022-08-19T06:39:21;20.33;;;13.10;;
20840;SDS011;10581;48.524;9.040;2022-08-19T06:41:50;15.65;;;10.70;;
20840;SDS011;10581;48.524;9.040;2022-08-19T06:44:18;17.40;;;11.40;;
20840;SDS011;10581;48.524;9.040;2022-08-19T06:46:45;17.10;;;11.18;;
20840;SDS011;10581;48.524;9.040;2022-08-19T06:49:12;15.80;;;9.98;;
20840;SDS011;10581;48.524;9.040;2022-08-19T06:51:42;14.25;;;10.25;;
20840;SDS011;10581;48.524;9.040;2022-08-19T06:54:12;16.83;;;11.93;;
20840;SDS011;10581;48.524;9.040;2022-08-19T06:56:38;19.50;;;12.98;;
20840;SDS011;10581;48.524;9.040;2022-08-19T06:59:09;18.33;;;11.88;;
20840;SDS011;10581;48.524;9.040;2022-08-19T07:01:37;17.60;;;11.80;;
20840;SDS011;10581;48.524;9.040;2022-08-19T07:04:12;19.45;;;11.95;;
20840;SDS011;10581;48.524;9.040;2022-08-19T07:06:40;19.13;;;12.77;;
20840;SDS011;10581;48.524;9.040;2022-08-19T07:09:07;19.50;;;12.43;;
20840;SDS011;10581;48.524;9.040;2022-08-19T07:11:33;20.00;;;12.20;;
20840;SDS011;10581;48.524;9.040;2022-08-19T07:14:00;18.90;;;13.10;;
20840;SDS011;10581;48.524;9.040;2022-08-19T07:16:26;21.25;;;13.68;;
20840;SDS011;10581;48.524;9.040;2022-08-19T07:18:53;18.98;;;12.32;;
20840;SDS011;10581;48.524;9.040;2022-08-19T07:21:21;20.20;;;12.52;;
20840;SDS011;10581;48.524;9.040;2022-08-19T07:23:49;19.77;;;12.68;;
20840;SDS011;10581;48.524;9.040;2022-08-19T07:26:20;21.08;;;13.30;;
20840;SDS011;10581;48.524;9.040;2022-08-19T07:28:48;20.40;;;12.68;;
20840;SDS011;10581;48.524;9.040;2022-08-19T07:31:15;21.10;;;13.90;;
20840;SDS011;10581;48.524;9.040;2022-08-19T07:33:45;20.73;;;12.50;;
20840;SDS011;10581;48.524;9.040;2022-08-19T07:36:12;19.60;;;13.52;;
20840;SDS011;10581;48.524;9.040;2022-08-19T07:38:40;21.33;;;13.50;;
20840;SDS011;10581;48.524;9.040;2022-08-19T07:41:09;20.52;;;12.68;;
20840;SDS011;10581;48.524;9.040;2022-08-19T07:43:37;21.00;;;13.05;;
20840;SDS011;10581;48.524;9.040;2022-08-19T07:46:03;20.20;;;13.25;;
20840;SDS011;10581;48.524;9.040;2022-08-19T07:48:29;19.43;;;12.80;;
20840;SDS011;10581;48.524;9.040;2022-08-19T07:50:56;16.57;;;11.73;;
20840;SDS011;10581;48.524;9.040;2022-08-19T07:53:27;24.02;;;15.05;;
20840;SDS011;10581;48.524;9.040;2022-08-19T07:55:54;16.70;;;11.48;;
20840;SDS011;10581;48.524;9.040;2022-08-19T07:58:25;21.27;;;14.07;;
20840;SDS011;10581;48.524;9.040;2022-08-19T08:00:50;21.20;;;12.93;;
20840;SDS011;10581;48.524;9.040;2022-08-19T08:03:17;21.30;;;14.33;;
20840;SDS011;10581;48.524;9.040;2022-08-19T08:05:44;17.50;;;12.40;;
20840;SDS011;10581;48.524;9.040;2022-08-19T08:08:30;16.90;;;12.57;;
20840;SDS011;10581;48.524;9.040;2022-08-19T08:11:16;18.45;;;12.15;;
20840;SDS011;10581;48.524;9.040;2022-08-19T08:13:43;18.73;;;12.90;;
20840;SDS011;10581;48.524;9.040;2022-08-19T08:16:09;22.23;;;13.33;;
20840;SDS011;10581;48.524;9.040;2022-08-19T08:18:35;17.73;;;12.50;;
20840;SDS011;10581;48.524;9.040;2022-08-19T08:21:06;20.30;;;13.95;;
20840;SDS011;10581;48.524;9.040;2022-08-19T08:23:32;19.30;;;13.30;;
20840;SDS011;10581;48.524;9.040;2022-08-19T08:25:59;17.30;;;10.43;;
20840;SDS011;10581;48.524;9.040;2022-08-19T08:28:25;18.95;;;12.55;;
20840;SDS011;10581;48.524;9.040;2022-08-19T08:30:55;17.15;;;12.00;;
20840;SDS011;10581;48.524;9.040;2022-08-19T08:33:23;17.63;;;12.18;;
20840;SDS011;10581;48.524;9.040;2022-08-19T08:35:51;17.80;;;12.88;;
20840;SDS011;10581;48.524;9.040;2022-08-19T08:38:17;19.93;;;13.43;;
20840;SDS011;10581;48.524;9.040;2022-08-19T08:45:47;20.73;;;13.70;;
20840;SDS011;10581;48.524;9.040;2022-08-19T08:51:07;18.60;;;12.32;;
20840;SDS011;10581;48.524;9.040;2022-08-19T08:53:36;14.75;;;10.55;;
20840;SDS011;10581;48.524;9.040;2022-08-19T08:56:03;17.13;;;12.65;;
20840;SDS011;10581;48.524;9.040;2022-08-19T08:59:19;15.40;;;11.57;;
20840;SDS011;10581;48.524;9.040;2022-08-19T09:01:23;21.83;;;13.05;;
20840;SDS011;10581;48.524;9.040;2022-08-19T09:03:49;19.10;;;12.97;;
20840;SDS011;10581;48.524;9.040;2022-08-19T09:06:22;17.65;;;12.10;;
20840;SDS011;10581;48.524;9.040;2022-08-19T09:09:04;20.02;;;11.85;;
20840;SDS011;10581;48.524;9.040;2022-08-19T09:14:12;18.73;;;12.55;;
20840;SDS011;10581;48.524;9.040;2022-08-19T09:16:41;18.55;;;12.23;;
20840;SDS011;10581;48.524;9.040;2022-08-19T09:19:07;18.00;;;12.43;;
20840;SDS011;10581;48.524;9.040;2022-08-19T09:21:33;18.45;;;11.70;;
20840;SDS011;10581;48.524;9.040;2022-08-19T09:24:02;16.07;;;11.77;;
20840;SDS011;10581;48.524;9.040;2022-08-19T09:26:29;17.02;;;11.65;;
20840;SDS011;10581;48.524;9.040;2022-08-19T09:28:57;17.25;;;11.80;;
20840;SDS011;10581;48.524;9.040;2022-08-19T09:31:26;18.02;;;12.50;;
20840;SDS011;10581;48.524;9.040;2022-08-19T09:33:54;19.33;;;12.90;;
20840;SDS011;10581;48.524;9.040;2022-08-19T09:36:24;18.98;;;11.93;;
20840;SDS011;10581;48.524;9.040;2022-08-19T09:38:54;19.33;;;12.13;;
20840;SDS011;10581;48.524;9.040;2022-08-19T09:41:21;16.30;;;11.27;;
20840;SDS011;10581;48.524;9.040;2022-08-19T09:43:50;22.63;;;13.05;;
20840;SDS011;10581;48.524;9.040;2022-08-19T09:46:17;16.02;;;11.30;;
20840;SDS011;10581;48.524;9.040;2022-08-19T09:48:46;16.38;;;11.82;;
20840;SDS011;10581;48.524;9.040;2022-08-19T09:51:15;18.45;;;11.73;;
20840;SDS011;10581;48.524;9.040;2022-08-19T09:53:44;19.60;;;12.88;;
20840;SDS011;10581;48.524;9.040;2022-08-19T09:56:11;17.27;;;11.77;;
20840;SDS011;10581;48.524;9.040;2022-08-19T09:58:37;19.50;;;11.43;;
20840;SDS011;10581;48.524;9.040;2022-08-19T10:01:04;19.70;;;13.20;;
20840;SDS011;10581;48.524;9.040;2022-08-19T10:03:32;14.82;;;11.38;;
20840;SDS011;10581;48.524;9.040;2022-08-19T10:06:00;18.55;;;12.73;;
20840;SDS011;10581;48.524;9.040;2022-08-19T10:08:30;16.55;;;11.95;;
20840;SDS011;10581;48.524;9.040;2022-08-19T10:10:58;17.98;;;10.68;;
20840;SDS011;10581;48.524;9.040;2022-08-19T10:13:25;18.55;;;12.52;;
20840;SDS011;10581;48.524;9.040;2022-08-19T10:15:52;14.35;;;9.95;;
20840;SDS011;10581;48.524;9.040;2022-08-19T10:18:21;16.23;;;11.23;;
20840;SDS011;10581;48.524;9.040;2022-08-19T10:20:48;15.43;;;10.90;;
20840;SDS011;10581;48.524;9.040;2022-08-19T10:23:15;19.52;;;11.82;;
20840;SDS011;10581;48.524;9.040;2022-08-19T10:25:42;18.33;;;12.95;;
20840;SDS011;10581;48.524;9.040;2022-08-19T10:28:08;15.35;;;12.00;;
20840;SDS011;10581;48.524;9.040;2022-08-19T10:30:37;19.33;;;11.63;;
20840;SDS011;10581;48.524;9.040;2022-08-19T10:33:03;24.50;;;14.63;;
20840;SDS011;10581;48.524;9.040;2022-08-19T10:35:29;18.27;;;11.65;;
20840;SDS011;10581;48.524;9.040;2022-08-19T10:37:55;21.50;;;14.63;;
20840;SDS011;10581;48.524;9.040;2022-08-19T10:40:24;17.67;;;12.73;;
20840;SDS011;10581;48.524;9.040;2022-08-19T10:42:51;20.88;;;14.00;;
20840;SDS011;10581;48.524;9.040;2022-08-19T10:45:17;19.52;;;13.85;;
20840;SDS011;10581;48.524;9.040;2022-08-19T10:47:43;18.90;;;13.27;;
20840;SDS011;10581;48.524;9.040;2022-08-19T10:50:08;22.20;;;13.07;;
20840;SDS011;10581;48.524;9.040;2022-08-19T10:52:53;17.73;;;13.10;;
20840;SDS011;10581;48.524;9.040;2022-08-19T10:55:22;20.83;;;14.03;;
20840;SDS011;10581;48.524;9.040;2022-08-19T10:58:11;15.57;;;11.90;;
20840;SDS011;10581;48.524;9.040;2022-08-19T11:00:41;16.45;;;12.10;;
20840;SDS011;10581;48.524;9.040;2022-08-19T11:03:10;17.85;;;12.90;;
20840;SDS011;10581;48.524;9.040;2022-08-19T11:05:36;20.10;;;13.53;;
20840;SDS011;10581;48.524;9.040;2022-08-19T11:08:03;17.45;;;12.82;;
20840;SDS011;10581;48.524;9.040;2022-08-19T11:10:29;18.30;;;11.63;;
20840;SDS011;10581;48.524;9.040;2022-08-19T11:12:54;21.90;;;13.40;;
20840;SDS011;10581;48.524;9.040;2022-08-19T11:15:20;18.63;;;14.07;;
20840;SDS011;10581;48.524;9.040;2022-08-19T11:17:46;20.02;;;13.27;;
20840;SDS011;10581;48.524;9.040;2022-08-19T11:20:13;22.03;;;13.60;;
20840;SDS011;10581;48.524;9.040;2022-08-19T11:22:39;18.13;;;12.95;;
20840;SDS011;10581;48.524;9.040;2022-08-19T11:25:06;20.50;;;14.10;;
20840;SDS011;10581;48.524;9.040;2022-08-19T11:27:32;18.13;;;13.02;;
20840;SDS011;10581;48.524;9.040;2022-08-19T11:29:58;20.07;;;13.47;;
20840;SDS011;10581;48.524;9.040;2022-08-19T11:32:25;20.67;;;13.65;;
20840;SDS011;10581;48.524;9.040;2022-08-19T11:34:52;18.15;;;14.70;;
20840;SDS011;10581;48.524;9.040;2022-08-19T11:37:17;23.33;;;16.00;;
20840;SDS011;10581;48.524;9.040;2022-08-19T11:39:43;19.90;;;13.50;;
20840;SDS011;10581;48.524;9.040;2022-08-19T11:42:09;22.50;;;13.60;;
20840;SDS011;10581;48.524;9.040;2022-08-19T11:44:53;16.20;;;10.98;;
20840;SDS011;10581;48.524;9.040;2022-08-19T11:47:19;18.80;;;13.15;;
20840;SDS011;10581;48.524;9.040;2022-08-19T11:49:45;20.27;;;13.77;;
20840;SDS011;10581;48.524;9.040;2022-08-19T11:52:12;20.40;;;14.45;;
20840;SDS011;10581;48.524;9.040;2022-08-19T11:54:37;17.33;;;12.50;;
20840;SDS011;10581;48.524;9.040;2022-08-19T11:57:03;18.40;;;13.33;;
20840;SDS011;10581;48.524;9.040;2022-08-19T11:59:29;17.20;;;13.20;;
20840;SDS011;10581;48.524;9.040;2022-08-19T12:01:55;17.43;;;12.70;;
20840;SDS011;10581;48.524;9.040;2022-08-19T12:04:23;19.43;;;13.93;;
20840;SDS011;10581;48.524;9.040;2022-08-19T12:06:48;19.17;;;13.38;;
20840;SDS011;10581;48.524;9.040;2022-08-19T12:09:15;20.90;;;13.75;;
20840;SDS011;10581;48.524;9.040;2022-08-19T12:11:42;15.10;;;11.57;;
20840;SDS011;10581;48.524;9.040;2022-08-19T12:14:11;18.70;;;12.23;;
20840;SDS011;10581;48.524;9.040;2022-08-19T12:16:39;17.70;;;12.52;;
20840;SDS011;10581;48.524;9.040;2022-08-19T12:19:06;20.02;;;13.63;;
20840;SDS011;10581;48.524;9.040;2022-08-19T12:21:32;21.88;;;13.82;;
20840;SDS011;10581;48.524;9.040;2022-08-19T12:23:59;18.08;;;13.48;;
20840;SDS011;10581;48.524;9.040;2022-08-19T12:26:27;17.02;;;12.65;;
20840;SDS011;10581;48.524;9.040;2022-08-19T12:28:54;20.73;;;13.63;;
20840;SDS011;10581;48.524;9.040;2022-08-19T12:31:20;20.63;;;14.40;;
20840;SDS011;10581;48.524;9.040;2022-08-19T12:33:46;19.80;;;14.50;;
20840;SDS011;10581;48.524;9.040;2022-08-19T12:36:13;20.40;;;13.73;;
20840;SDS011;10581;48.524;9.040;2022-08-19T12:38:40;20.48;;;13.15;;
20840;SDS011;10581;48.524;9.040;2022-08-19T12:41:09;16.90;;;12.95;;
20840;SDS011;10581;48.524;9.040;2022-08-19T12:43:37;18.13;;;12.75;;
20840;SDS011;10581;48.524;9.040;2022-08-19T12:46:04;16.33;;;13.33;;
20840;SDS011;10581;48.524;9.040;2022-08-19T12:48:31;19.05;;;14.50;;
20840;SDS011;10581;48.524;9.040;2022-08-19T12:50:57;21.23;;;13.85;;
20840;SDS011;10581;48.524;9.040;2022-08-19T12:53:23;17.80;;;13.67;;
20840;SDS011;10581;48.524;9.040;2022-08-19T12:55:55;18.02;;;13.20;;
20840;SDS011;10581;48.524;9.040;2022-08-19T12:58:22;20.60;;;14.38;;
20840;SDS011;10581;48.524;9.040;2022-08-19T13:00:48;18.85;;;13.40;;
20840;SDS011;10581;48.524;9.040;2022-08-19T13:03:14;16.63;;;11.83;;
20840;SDS011;10581;48.524;9.040;2022-08-19T13:05:40;18.33;;;13.75;;
20840;SDS011;10581;48.524;9.040;2022-08-19T13:08:06;18.45;;;13.85;;
20840;SDS011;10581;48.524;9.040;2022-08-19T13:10:33;19.13;;;12.50;;
20840;SDS011;10581;48.524;9.040;2022-08-19T13:13:00;16.15;;;12.65;;
20840;SDS011;10581;48.524;9.040;2022-08-19T13:15:28;17.40;;;13.45;;
20840;SDS011;10581;48.524;9.040;2022-08-19T13:17:56;15.05;;;10.45;;
20840;SDS011;10581;48.524;9.040;2022-08-19T13:20:23;17.23;;;12.05;;
20840;SDS011;10581;48.524;9.040;2022-08-19T13:22:49;15.25;;;10.77;;
20840;SDS011;10581;48.524;9.040;2022-08-19T13:25:16;16.98;;;11.30;;
20840;SDS011;10581;48.524;9.040;2022-08-19T13:27:44;16.38;;;11.98;;
20840;SDS011;10581;48.524;9.040;2022-08-19T13:30:13;16.75;;;11.77;;
20840;SDS011;10581;48.524;9.040;2022-08-19T13:32:58;16.15;;;11.30;;
20840;SDS011;10581;48.524;9.040;2022-08-19T13:35:36;19.52;;;11.82;;
20840;SDS011;10581;48.524;9.040;2022-08-19T13:38:16;18.02;;;13.15;;
20840;SDS011;10581;48.524;9.040;2022-08-19T13:40:44;17.75;;;12.20;;
20840;SDS011;10581;48.524;9.040;2022-08-19T13:43:11;17.25;;;11.15;;
20840;SDS011;10581;48.524;9.040;2022-08-19T13:45:36;15.57;;;11.00;;
20840;SDS011;10581;48.524;9.040;2022-08-19T13:48:03;17.00;;;12.87;;
20840;SDS011;10581;48.524;9.040;2022-08-19T13:50:33;16.42;;;12.23;;
20840;SDS011;10581;48.524;9.040;2022-08-19T13:53:03;16.20;;;11.32;;
20840;SDS011;10581;48.524;9.040;2022-08-19T13:55:30;14.38;;;11.18;;
20840;SDS011;10581;48.524;9.040;2022-08-19T13:57:57;15.45;;;11.13;;
20840;SDS011;10581;48.524;9.040;2022-08-19T14:00:27;21.08;;;11.63;;
20840;SDS011;10581;48.524;9.040;2022-08-19T14:02:56;15.40;;;11.65;;
20840;SDS011;10581;48.524;9.040;2022-08-19T14:05:22;15.18;;;10.95;;
20840;SDS011;10581;48.524;9.040;2022-08-19T14:07:49;14.10;;;10.80;;
20840;SDS011;10581;48.524;9.040;2022-08-19T14:10:16;15.07;;;12.33;;
20840;SDS011;10581;48.524;9.040;2022-08-19T14:12:43;14.45;;;10.88;;
20840;SDS011;10581;48.524;9.040;2022-08-19T14:15:10;16.50;;;11.43;;
20840;SDS011;10581;48.524;9.040;2022-08-19T14:17:38;16.13;;;11.50;;
20840;SDS011;10581;48.524;9.040;2022-08-19T14:20:05;15.45;;;11.20;;
20840;SDS011;10581;48.524;9.040;2022-08-19T14:22:37;15.35;;;10.30;;
20840;SDS011;10581;48.524;9.040;2022-08-19T14:25:07;15.30;;;11.57;;
20840;SDS011;10581;48.524;9.040;2022-08-19T14:27:35;13.65;;;10.75;;
20840;SDS011;10581;48.524;9.040;2022-08-19T14:30:02;15.73;;;11.45;;
20840;SDS011;10581;48.524;9.040;2022-08-19T14:32:32;14.32;;;11.15;;
20840;SDS011;10581;48.524;9.040;2022-08-19T14:34:59;13.95;;;10.75;;
20840;SDS011;10581;48.524;9.040;2022-08-19T14:37:24;15.60;;;11.10;;
20840;SDS011;10581;48.524;9.040;2022-08-19T14:39:50;14.80;;;10.93;;
20840;SDS011;10581;48.524;9.040;2022-08-19T14:42:16;15.00;;;10.83;;
20840;SDS011;10581;48.524;9.040;2022-08-19T14:44:42;13.20;;;10.63;;
20840;SDS011;10581;48.524;9.040;2022-08-19T14:47:09;13.93;;;10.52;;
20840;SDS011;10581;48.524;9.040;2022-08-19T14:49:35;14.77;;;11.10;;